windsock image

Welcome to Bigfield Strip.

anemometer image
     

 Help for dials.  
 
Local Met:

Wind:   
10 Min average:  
82 ° / 0.1 kts (0.9)
70° / 0.0

Temperature:  
16.3°C C
Dew Point:  
15.5°C C
QNH:  
Trend:  
1012.8 mb mb
-0.1mb/hr
BigField Strip. This image updates approximately every minute, it can have a two minute delay.  
 

Humidity:  
95 %
Sunrise:   05:44z
Sunset:   18:09z
Updated:  
  UTC
 
   More met info, trends, radar, history etc. available here   

LUTON Metar   EGGW 192320Z 03004KT 0200 R08/0375 FG OVC001 16/16 Q1014
 
  TAF   2014/09/19 21:40 TAF AMD EGGW 192134Z 1921/2018 VRB04KT 1200 BR OVC002 BECMG 1921/1924 0200 FG VV/// PROB40 TEMPO 1921/1924 +SHRA TS PROB40 TEMPO 2000/2009 +SHRA TEMPO 2003/2009 1500 BR BKN003 BECMG 2009/2012 6000 NSW BKN008 BECMG 2012/2015 01010KT 9999 BKN010 TEMPO 2015/2018 BKN020
 
BENSON Metar   EGUB 192250Z AUTO 33003KT 1700 // BKN005/// SCT160/// 16/16 Q1013
 
  TAF   2014/09/19 15:18 TAF TAF EGUB 191436Z 1915/1918 CNL
 
Big Field view 1 icon   Big Field view 2 icon   Big Field view 3 icon   Chart AL3a in PDF icon   Chart AL3a in Word icon

WARNING:
This information is provided by the Airstrip unofficial weather station, DO NOT depend on the data provided here for any purpose.
This page is updated for latest Metars & TAF's every 5 minutes. Refresh the browser to check for the lastest.
Page designed for a minimum browser size of 1024x768.
© Copyright 2014 BigField Strip. This page auto generated 23:51 UTC - 19/09/2014   Contact Us
Valid HTML 4.01 Transitional     Windows uptime: 4 Days 21 Hours 19 Minutes 28 Seconds    WD started: 02:37 15/09/14    Free memory: 1509MB     Valid CSS!